AirNav   ATP
 
 653 users online  

XA0 Prose Field Airport
Justin, Texas, USA

GOING TO JUSTIN?


FAA INFORMATION EFFECTIVE 09 NOVEMBER 2017

Location

FAA Identifier: XA0
Lat/Long: 33-08-53.4000N / 097-16-48.1000W
33-08.890000N / 097-16.801667W
33.1481667 / -97.2800278
(estimated)
Elevation: 685 ft. / 209 m (estimated)
From city: 4 miles SSW of JUSTIN, TX
Time zone: UTC -6 (UTC -5 during Daylight Saving Time)
Zip code: 76247

Airport Operations

Airport use: Open to the public
Activation date: 03/2004
Control tower: no
ARTCC: FORT WORTH CENTER
FSS: FORT WORTH FLIGHT SERVICE STATION
NOTAMs facility: FTW (NOTAM-D service available)
Attendance: UNATNDD
Wind indicator: yes
Segmented circle: no

Airport Communications

CTAF: 122.9
WX ASOS at DTO (5 nm NE): 119.325 (940-383-8457)
WX ASOS at AFW (10 nm S): PHONE 817-491-6188
WX AWOS-3 at LUD (16 nm NW): 118.225 (940-627-2365)
WX ASOS at DFW (19 nm SE): PHONE 972-615-2608

Nearby radio navigation aids

VOR radial/distance  VOR name  Freq  Var
FUZr336/16.3RANGER VORTAC115.7006E
TTTr318/20.6MAVERICK VOR/DME113.1006E
CVEr303/24.4COWBOY VOR/DME116.2006E
UKWr125/35.7BOWIE VORTAC112.4006E

 
NDB name  Hdg/Dist  Freq  Var  ID
PINCK203/9.125704EDT -.. -
MELISA256/35.442103EVLY ...- .-.. -.--
GRINDSTONE MOUNTAIN131/36.935607EGMZ --. -- --..

Airport Services

Parking: hangars and tiedowns

Runway Information

Runway 18/36

Dimensions: 1660 x 60 ft. / 506 x 18 m
Surface: turf, in good condition
RUNWAY 18  RUNWAY 36
Latitude: 33-09.026667N33-08.753333N
Longitude: 097-16.800000W097-16.803333W
Elevation: 685.0 ft.670.0 ft.
Traffic pattern: leftright
Runway heading: 181 true001 true
Displaced threshold: 320 ft.180 ft.
Obstructions: 16 ft. road, 36 ft. from runway, 2:1 slope to clear
APCH RATIO 20:1 AT DSPLCD THLD.
10 ft. pole, 50 ft. from runway, 75 ft. right of centerline, 5:1 slope to clear

Airport Ownership and Management from official FAA records

Ownership: Privately-owned
Owner: GEOFFREY & DEBBIE PROSE
8659 BLAIR RD
JUSTIN, TX 76247
Phone 940-479-2763
Manager: GEOFFREY & DEBBIE PROSE
8659 BLAIR RD
JUSTIN, TX 76247
Phone 940-479-2763

Airport Operational Statistics

Aircraft based on the field: 2
Single engine airplanes: 2
    
Aircraft operations: 200/year *
50% transient general aviation
50% local general aviation
* for 12-month period ending 31 December 2015

Additional Remarks

FOR CD CTC REGIONAL APCH AT 972-615-2799.

Instrument Procedures

There are no published instrument procedures at XA0.

Some nearby airports with instrument procedures:

KDTO - Denton Enterprise Airport (5 nm NE)
KAFW - Fort Worth Alliance Airport (10 nm S)
4T2 - Kenneth Copeland Airport (15 nm SW)
KLUD - Decatur Municipal Airport (16 nm NW)
KDFW - Dallas-Fort Worth International Airport (19 nm SE)
 
Loc | Ops | Rwys | IFR | FBO | Links
Com | Nav | Svcs | Stats | Notes

Lake Texoma Jet Center
AirBoss

 
Area around XA0 (Prose Field Airport)
 
Road maps at: MapQuest Bing Google
 
Aerial photo
No photo
 
Sectional chart

 
Airport distance calculator
Flying to Prose Field Airport? Find the distance to fly.

From to XA0

Sunrise and sunset
Times for 19-Nov-2017
 Local
(UTC-6)
 Zulu
(UTC)
Morning civil twilight06:3812:38
Sunrise07:0513:05
Sunset17:2423:24
Evening civil twilight17:5123:51

Current date and time
Zulu (UTC)  20-Nov-2017 05:01:10
Local (UTC-6)  19-Nov-2017 23:01:10
 
METAR
KDTO 
5nm NE 
200453Z AUTO 13003KT 10SM CLR 06/M01 A3022 RMK AO2 SLP233 T00611011
KAFW 
11nm S 
200453Z 19003KT 10SM CLR 03/M01 A3022 RMK AO2 SLP237 T00331011 $
KLUD 
16nm NW 
118.22 940-927-2365
200110Z AUTO 16005KT 10SM CLR 10/M03 A3021 RMK AO2 T01021030
KFTW 
19nm S 
200453Z 00000KT 10SM CLR 09/01 A3022 RMK AO2 SLP232 T00940006
KDFW 
20nm SE 
200453Z 14004KT 10SM FEW300 09/01 A3021 RMK AO2 SLP228 T00890006 $
TAF
KAFW 
11nm S 
200310Z 2003/2024 16005KT P6SM SCT300 FM201700 18012KT P6SM SCT300
KFTW 
19nm S 
200310Z 2003/2024 16005KT P6SM SCT300 FM201700 18012KT P6SM SCT300
KDFW 
20nm SE 
200310Z 2003/2106 16005KT P6SM SCT300 FM201700 18012KT P6SM SCT300
NOTAMs
Click for the latest NOTAMs
NOTAMs are issued by the DoD/FAA and will open in a separate window not controlled by AirNav.

 

 
 

Would you like to see your business listed on this page?

 If your business provides an interesting product or service to pilots, flight crews, aircraft, or users of the Prose Field Airport, you should consider listing it here.  To start the listing process, click on the button below
 
Add a business
 

Other Pages about Prose Field Airport

Update a link
 
Copyright © AirNav, LLC. All rights reserved. Privacy Policy  Contact